Weather at Keflavik International Airport

Public forecast

Using degrees Celsius for public forecast. Weather courtesy of forecast.io.

Current aviation weather report (METAR) for Keflavik International Airport

Report is more than 6 hours old.

2022/11/14 15:30 (retrieved 2 years ago)

BIKF 141530Z 06007KT 9999 BKN021 07/04 Q0997

Aviation forecast (TAF) for Keflavik International Airport

Forecast is more than 12 hours old.

2023/02/22 21:52 (retrieved 1 year ago)

TAF BIKF 221945Z 2221/2321 22022G33KT 9999 -SHRA SCT012 BKN018 TX06/2221Z TN03/2321Z BECMG 2313/2315 28015KT